Time;durP1;ratioP1;P1;durP2;ratioP2;P2;SDS_P1;SDS_P2;PMS_P1;PMS_P2;Temp;Humidity;BMP_temperature;BMP_pressure;BME280_temperature;BME280_humidity;BME280_pressure;Samples;Min_cycle;Max_cycle;Signal;HPM_P1;HPM_P2
2023/01/30 00:01:02;;;;;;;31.50;22.08;;;6.40;99.90;;;;;;6188440;23;20005;-85
2023/01/30 00:03:28;;;;;;;34.40;21.63;;;6.40;99.90;;;;;;6214535;23;20027;-86
2023/01/30 00:05:53;;;;;;;31.77;21.30;;;6.40;99.90;;;;;;6213310;23;20475;-85
2023/01/30 00:08:20;;;;;;;35.38;21.40;;;6.40;99.90;;;;;;6188695;23;20451;-86
2023/01/30 00:10:46;;;;;;;30.42;20.17;;;6.40;99.90;;;;;;6214698;23;20013;-85
2023/01/30 00:13:13;;;;;;;30.48;20.70;;;6.50;99.90;;;;;;6188000;23;20027;-85
2023/01/30 00:15:39;;;;;;;33.40;19.77;;;6.40;99.90;;;;;;6215198;23;20035;-85
2023/01/30 00:18:05;;;;;;;30.05;19.90;;;6.50;99.90;;;;;;6213179;23;20380;-85
2023/01/30 00:20:31;;;;;;;32.80;18.70;;;6.50;99.90;;;;;;6188416;23;20013;-85
2023/01/30 00:22:57;;;;;;;26.90;17.90;;;6.50;99.90;;;;;;6191064;23;20027;-87
2023/01/30 00:25:24;;;;;;;27.70;18.13;;;6.50;99.90;;;;;;6189762;23;20020;-86
2023/01/30 00:27:49;;;;;;;30.70;18.02;;;6.60;99.90;;;;;;6187895;23;20078;-85
2023/01/30 00:30:15;;;;;;;23.63;17.00;;;6.60;99.90;;;;;;6188231;23;20420;-86
2023/01/30 00:32:41;;;;;;;25.25;16.83;;;6.60;99.90;;;;;;6212137;23;20503;-85
2023/01/30 00:35:07;;;;;;;26.77;16.67;;;6.60;99.90;;;;;;6188400;23;20460;-85
2023/01/30 00:37:32;;;;;;;31.45;16.98;;;6.60;99.90;;;;;;6188022;23;20009;-85
2023/01/30 00:39:58;;;;;;;26.15;16.58;;;6.70;99.90;;;;;;6213690;23;20013;-86
2023/01/30 00:47:55;;;;;;;28.45;16.40;;;6.70;99.90;;;;;;6213204;23;20020;-85
2023/01/30 00:50:21;;;;;;;28.60;16.02;;;6.70;99.90;;;;;;6188142;23;20191;-85
2023/01/30 00:52:47;;;;;;;29.70;17.75;;;6.70;99.90;;;;;;6215126;23;20055;-85
2023/01/30 00:55:14;;;;;;;27.08;16.23;;;6.70;99.90;;;;;;6187659;23;20012;-86
2023/01/30 00:57:40;;;;;;;32.33;17.40;;;6.70;99.90;;;;;;6213093;23;20009;-85
2023/01/30 01:00:08;;;;;;;33.25;18.25;;;6.80;99.90;;;;;;6187260;23;20510;-85
2023/01/30 01:02:34;;;;;;;37.55;19.02;;;6.70;99.90;;;;;;6212275;23;20012;-85
2023/01/30 01:04:59;;;;;;;31.08;17.88;;;6.70;99.90;;;;;;6187369;23;20015;-85
2023/01/30 01:07:25;;;;;;;32.45;18.45;;;6.70;99.90;;;;;;6238493;23;20008;-85
2023/01/30 01:09:51;;;;;;;33.38;18.40;;;6.60;99.90;;;;;;6212869;23;20047;-85
2023/01/30 01:12:16;;;;;;;28.77;17.67;;;6.70;99.90;;;;;;6187314;23;20013;-85
2023/01/30 01:14:42;;;;;;;30.17;16.90;;;6.60;99.90;;;;;;6186524;23;20087;-84
2023/01/30 01:17:07;;;;;;;33.17;17.38;;;6.60;99.90;;;;;;6214322;23;20075;-84
2023/01/30 01:19:34;;;;;;;31.33;17.38;;;6.60;99.90;;;;;;6211842;23;20012;-84
2023/01/30 01:22:00;;;;;;;27.55;16.25;;;6.50;99.90;;;;;;6187288;23;20092;-85
2023/01/30 01:24:26;;;;;;;26.50;15.48;;;6.50;99.90;;;;;;6212444;23;20044;-84
2023/01/30 01:26:52;;;;;;;29.83;15.25;;;6.50;99.90;;;;;;6186927;23;20092;-84
2023/01/30 01:29:18;;;;;;;26.27;13.98;;;6.60;99.90;;;;;;6213507;23;20071;-84
2023/01/30 01:31:44;;;;;;;24.40;13.48;;;6.50;99.90;;;;;;6211961;23;20397;-85
2023/01/30 01:34:10;;;;;;;26.65;13.45;;;6.60;99.90;;;;;;6237935;23;20009;-85
2023/01/30 01:36:36;;;;;;;26.58;14.07;;;6.60;99.90;;;;;;6212470;23;20090;-84
2023/01/30 01:39:02;;;;;;;25.55;13.38;;;6.50;99.90;;;;;;6213991;23;20008;-84
2023/01/30 01:41:28;;;;;;;22.38;11.63;;;6.50;99.90;;;;;;6186855;23;20102;-84
2023/01/30 01:44:07;;;;;;;18.02;11.63;;;6.50;99.90;;;;;;6213233;23;20023;-85
2023/01/30 01:46:50;;;;;;;19.90;10.88;;;6.50;99.90;;;;;;6187275;23;20519;-85
2023/01/30 01:49:25;;;;;;;16.10;9.45;;;6.50;99.90;;;;;;6212258;23;20471;-84
2023/01/30 01:51:55;;;;;;;22.27;10.18;;;6.60;99.90;;;;;;6211880;23;20020;-84
2023/01/30 01:54:37;;;;;;;18.90;10.02;;;6.50;99.90;;;;;;6212130;23;20012;-84
2023/01/30 01:57:07;;;;;;;15.60;8.98;;;6.60;99.90;;;;;;6211891;23;20138;-85
2023/01/30 02:00:16;;;;;;;17.23;8.80;;;6.60;99.90;;;;;;6211715;23;20281;-84
2023/01/30 02:02:50;;;;;;;19.48;9.20;;;6.60;99.90;;;;;;6211270;23;20016;-84
2023/01/30 02:05:17;;;;;;;15.02;9.30;;;6.60;99.90;;;;;;6213658;23;20044;-84
2023/01/30 02:08:03;;;;;;;20.58;9.98;;;6.90;99.90;;;;;;6212250;23;20016;-84
2023/01/30 02:10:50;;;;;;;17.83;9.93;;;6.60;99.90;;;;;;6212154;23;20013;-84
2023/01/30 02:13:16;;;;;;;16.17;9.15;;;6.60;99.90;;;;;;6211658;23;20115;-86
2023/01/30 02:15:42;;;;;;;18.13;10.27;;;6.60;99.90;;;;;;6212631;23;20016;-84
2023/01/30 02:18:09;;;;;;;20.27;10.68;;;6.70;99.90;;;;;;6212092;23;20013;-84
2023/01/30 02:21:03;;;;;;;24.45;11.07;;;6.70;99.90;;;;;;6187317;23;20012;-84
2023/01/30 02:24:07;;;;;;;21.00;10.15;;;6.70;99.90;;;;;;6212299;23;20009;-84
2023/01/30 02:26:41;;;;;;;24.73;10.30;;;6.70;99.90;;;;;;6187073;23;20016;-84
2023/01/30 02:29:58;;;;;;;25.08;10.65;;;6.70;99.90;;;;;;6212205;23;20075;-84
2023/01/30 02:32:32;;;;;;;20.17;9.85;;;6.80;99.90;;;;;;6130630;23;20020;-84
2023/01/30 02:35:02;;;;;;;22.00;10.40;;;6.80;99.90;;;;;;6214153;23;20066;-84
2023/01/30 02:37:45;;;;;;;21.20;10.35;;;6.80;99.90;;;;;;6187057;23;20013;-85
2023/01/30 02:40:25;;;;;;;27.20;10.23;;;6.80;99.90;;;;;;6212953;23;20009;-84
2023/01/30 02:43:12;;;;;;;23.45;11.30;;;6.80;99.90;;;;;;6211863;23;20052;-84
2023/01/30 02:45:46;;;;;;;24.98;10.20;;;6.80;99.90;;;;;;6212817;23;20020;-87
2023/01/30 02:48:36;;;;;;;23.88;10.32;;;6.80;99.90;;;;;;6214268;23;20062;-85
2023/01/30 02:51:14;;;;;;;21.90;10.00;;;6.80;99.90;;;;;;6238455;23;20126;-84
2023/01/30 02:53:40;;;;;;;22.75;9.30;;;6.90;99.90;;;;;;6187603;23;20335;-85
2023/01/30 02:56:06;;;;;;;26.98;9.02;;;6.80;99.90;;;;;;6186319;23;20013;-85
2023/01/30 02:58:41;;;;;;;30.23;10.20;;;6.80;99.90;;;;;;6213763;23;20086;-85
2023/01/30 03:01:12;;;;;;;27.48;10.05;;;6.90;99.90;;;;;;6187128;23;20017;-85
2023/01/30 03:04:00;;;;;;;29.65;10.00;;;7.10;99.90;;;;;;6213472;23;20440;-85
2023/01/30 03:06:43;;;;;;;30.40;9.73;;;6.90;99.90;;;;;;6212231;23;20087;-85
2023/01/30 03:09:28;;;;;;;34.65;10.05;;;6.90;99.90;;;;;;6213572;23;20015;-84
2023/01/30 03:12:06;;;;;;;30.35;8.85;;;6.90;99.90;;;;;;6213301;23;20048;-85
2023/01/30 03:14:51;;;;;;;34.75;9.07;;;6.90;99.90;;;;;;6213763;23;20100;-85
2023/01/30 03:17:19;;;;;;;33.28;9.35;;;6.90;99.90;;;;;;6215710;23;20015;-85
2023/01/30 03:19:45;;;;;;;24.42;8.55;;;6.90;99.90;;;;;;6214452;23;20009;-85
2023/01/30 03:22:11;;;;;;;29.98;9.35;;;7.00;99.90;;;;;;6216203;23;20031;-85
2023/01/30 03:24:36;;;;;;;30.33;8.10;;;7.00;99.90;;;;;;6214009;23;20100;-85
2023/01/30 03:27:07;;;;;;;33.85;8.63;;;7.00;99.90;;;;;;6214948;23;20079;-85
2023/01/30 03:29:33;;;;;;;28.13;7.65;;;7.00;99.90;;;;;;6214013;23;20019;-85
2023/01/30 03:31:59;;;;;;;32.63;7.93;;;7.00;99.90;;;;;;6239721;23;20044;-85
2023/01/30 03:34:25;;;;;;;35.80;9.13;;;7.00;99.90;;;;;;6188876;23;20019;-84
2023/01/30 03:36:51;;;;;;;24.75;7.47;;;6.90;99.90;;;;;;6216228;23;20013;-85
2023/01/30 03:39:17;;;;;;;21.85;6.75;;;6.90;99.90;;;;;;6188556;23;20016;-85
2023/01/30 03:41:42;;;;;;;31.27;7.45;;;7.30;99.90;;;;;;6215232;23;20089;-85
2023/01/30 03:44:08;;;;;;;29.63;6.68;;;6.90;99.90;;;;;;6213314;23;20017;-85
2023/01/30 03:46:33;;;;;;;35.88;7.38;;;6.90;99.90;;;;;;6188834;23;20015;-85
2023/01/30 03:48:59;;;;;;;26.85;6.15;;;6.80;99.90;;;;;;6213829;23;20091;-85
2023/01/30 03:51:25;;;;;;;30.10;6.68;;;7.00;99.90;;;;;;6213531;23;20015;-85
2023/01/30 03:53:50;;;;;;;27.50;6.80;;;6.70;99.90;;;;;;6212391;23;20340;-84
2023/01/30 03:56:16;;;;;;;33.13;6.75;;;6.70;99.90;;;;;;6188707;23;20340;-84
2023/01/30 03:58:42;;;;;;;27.33;6.10;;;6.60;99.90;;;;;;6213442;23;20384;-84
2023/01/30 04:01:07;;;;;;;26.27;6.72;;;6.50;99.90;;;;;;6215027;23;20004;-85
2023/01/30 04:03:33;;;;;;;25.98;6.13;;;6.50;99.90;;;;;;6213253;23;20015;-85
2023/01/30 04:05:59;;;;;;;29.38;6.15;;;6.30;99.90;;;;;;6213748;23;20020;-84
2023/01/30 04:08:25;;;;;;;31.92;6.68;;;6.30;99.90;;;;;;6187417;23;20004;-85
2023/01/30 04:10:50;;;;;;;32.08;6.38;;;6.60;99.90;;;;;;6214746;23;20036;-85
2023/01/30 04:13:16;;;;;;;26.52;6.60;;;6.20;99.90;;;;;;6215270;23;20044;-85
2023/01/30 04:15:42;;;;;;;31.55;6.28;;;6.20;99.90;;;;;;6213575;23;20069;-85
2023/01/30 04:18:07;;;;;;;35.17;6.72;;;6.20;99.90;;;;;;6213236;23;20297;-84
2023/01/30 04:20:33;;;;;;;36.10;6.93;;;6.50;99.90;;;;;;6213315;23;20344;-84
2023/01/30 04:22:58;;;;;;;26.67;5.85;;;6.10;99.90;;;;;;6187857;23;20035;-84
2023/01/30 04:25:24;;;;;;;28.98;6.90;;;6.30;99.90;;;;;;6213435;23;20020;-84
2023/01/30 04:27:51;;;;;;;32.83;7.10;;;6.00;99.90;;;;;;6212574;23;20016;-84
2023/01/30 04:30:17;;;;;;;28.95;6.53;;;5.90;99.90;;;;;;6214169;23;20478;-85
2023/01/30 04:32:42;;;;;;;38.53;6.93;;;5.90;99.90;;;;;;6212558;23;20054;-85
2023/01/30 04:35:08;;;;;;;30.50;7.22;;;6.20;99.90;;;;;;6213484;23;20402;-84
2023/01/30 04:37:34;;;;;;;32.67;6.93;;;5.90;99.90;;;;;;6212357;23;20005;-84
2023/01/30 04:39:59;;;;;;;31.48;6.85;;;5.80;99.90;;;;;;6214390;23;20328;-84
2023/01/30 04:42:25;;;;;;;34.17;7.20;;;5.90;99.90;;;;;;6212771;23;20061;-84
2023/01/30 04:44:51;;;;;;;31.63;6.82;;;5.90;99.90;;;;;;6214083;23;20076;-85
2023/01/30 04:47:16;;;;;;;31.77;7.30;;;5.80;99.90;;;;;;6213024;23;20344;-85
2023/01/30 04:49:42;;;;;;;32.10;6.65;;;6.00;99.90;;;;;;6187822;23;20021;-85
2023/01/30 04:52:08;;;;;;;36.40;7.50;;;5.80;99.90;;;;;;6213891;23;20422;-85
2023/01/30 04:54:34;;;;;;;37.75;7.60;;;5.80;99.90;;;;;;6212886;23;20004;-85
2023/01/30 04:56:59;;;;;;;38.08;7.53;;;5.80;99.90;;;;;;6212629;23;20035;-84
2023/01/30 04:59:25;;;;;;;35.33;6.93;;;5.80;99.90;;;;;;6212674;23;20077;-84
2023/01/30 05:01:51;;;;;;;29.70;6.32;;;5.80;99.90;;;;;;6187508;23;20431;-85
2023/01/30 05:04:16;;;;;;;25.25;5.47;;;5.80;99.90;;;;;;6214711;23;20330;-84
2023/01/30 05:06:42;;;;;;;33.30;6.28;;;6.00;99.90;;;;;;6212099;23;20009;-84
2023/01/30 05:09:08;;;;;;;26.13;5.65;;;6.00;99.90;;;;;;6187560;23;20004;-86
2023/01/30 05:11:34;;;;;;;28.30;5.55;;;6.00;99.90;;;;;;6212924;23;20095;-84
2023/01/30 05:14:00;;;;;;;32.83;5.72;;;5.80;99.90;;;;;;6212657;23;20435;-85
2023/01/30 05:16:25;;;;;;;35.00;5.47;;;5.70;99.90;;;;;;6237810;23;20019;-85
2023/01/30 05:18:51;;;;;;;34.90;5.75;;;5.70;99.90;;;;;;6186518;23;20368;-85
2023/01/30 05:21:26;;;;;;;26.23;6.60;;;5.70;99.90;;;;;;6211004;23;20008;-85
2023/01/30 05:23:53;;;;;;;29.05;6.60;;;5.60;99.90;;;;;;6211751;23;20008;-85
2023/01/30 05:26:18;;;;;;;31.83;6.40;;;5.50;99.90;;;;;;6211947;23;20009;-85
2023/01/30 05:28:49;;;;;;;33.60;6.35;;;5.70;99.90;;;;;;6186592;23;20086;-85
2023/01/30 05:31:15;;;;;;;30.67;6.82;;;5.50;99.90;;;;;;6237040;23;20019;-85
2023/01/30 05:33:40;;;;;;;27.30;6.07;;;5.90;99.90;;;;;;6186511;23;20340;-85
2023/01/30 05:36:07;;;;;;;30.88;6.78;;;5.50;99.90;;;;;;6212814;23;20321;-85
2023/01/30 05:38:33;;;;;;;28.02;5.97;;;5.50;99.90;;;;;;6213796;23;20016;-85
2023/01/30 05:41:03;;;;;;;31.85;6.00;;;5.50;99.90;;;;;;6237174;23;20079;-85
2023/01/30 05:43:29;;;;;;;37.67;7.03;;;5.50;99.90;;;;;;6236827;23;20017;-85
2023/01/30 05:45:57;;;;;;;34.80;6.07;;;5.40;99.90;;;;;;6212895;23;20051;-85
2023/01/30 05:48:23;;;;;;;28.67;6.68;;;5.30;99.90;;;;;;6212058;23;20339;-84
2023/01/30 05:50:54;;;;;;;32.55;6.97;;;5.30;99.90;;;;;;6237304;23;20078;-84
2023/01/30 05:53:20;;;;;;;25.77;6.18;;;5.30;99.90;;;;;;6211950;23;20016;-84
2023/01/30 05:55:53;;;;;;;36.47;7.78;;;5.70;99.90;;;;;;6237754;23;20055;-83
2023/01/30 05:58:19;;;;;;;31.52;7.13;;;5.30;99.90;;;;;;6214484;23;20197;-85
2023/01/30 06:00:44;;;;;;;32.63;6.05;;;5.20;99.90;;;;;;6212103;23;20462;-85
2023/01/30 06:03:10;;;;;;;27.90;6.13;;;5.20;99.90;;;;;;6187581;23;20065;-85
2023/01/30 06:05:37;;;;;;;27.77;6.07;;;5.20;99.90;;;;;;6211537;23;20012;-85
2023/01/30 06:08:03;;;;;;;36.92;7.38;;;5.20;99.90;;;;;;6213095;23;20012;-85
2023/01/30 06:10:28;;;;;;;37.08;7.03;;;5.20;99.90;;;;;;6214310;23;20016;-85
2023/01/30 06:12:54;;;;;;;35.40;8.15;;;5.20;99.90;;;;;;6212883;23;20016;-84
2023/01/30 06:15:20;;;;;;;35.78;7.82;;;5.20;99.90;;;;;;6213179;23;20328;-84
2023/01/30 06:17:45;;;;;;;44.90;7.68;;;5.30;99.90;;;;;;6213026;23;20013;-85
2023/01/30 06:20:12;;;;;;;37.25;7.55;;;5.30;99.90;;;;;;6213717;23;20012;-85
2023/01/30 06:22:40;;;;;;;38.47;7.15;;;5.40;99.90;;;;;;6238068;23;20023;-85
2023/01/30 06:25:06;;;;;;;30.60;7.32;;;5.40;99.90;;;;;;6188244;23;20012;-85
2023/01/30 06:27:32;;;;;;;40.08;7.18;;;5.50;99.90;;;;;;6187766;23;20087;-84
2023/01/30 06:29:57;;;;;;;35.72;6.82;;;5.60;99.90;;;;;;6212331;23;20009;-85
2023/01/30 06:32:23;;;;;;;42.60;7.05;;;5.60;99.90;;;;;;6214270;23;20012;-85
2023/01/30 06:34:49;;;;;;;35.20;7.28;;;5.60;99.90;;;;;;6187206;23;20146;-86
2023/01/30 06:37:14;;;;;;;35.42;6.85;;;5.80;99.90;;;;;;6213444;23;20016;-85
2023/01/30 06:39:40;;;;;;;33.78;6.88;;;5.60;99.90;;;;;;6213046;23;20023;-85
2023/01/30 06:42:06;;;;;;;33.08;6.88;;;6.10;99.90;;;;;;6188490;23;20021;-86
2023/01/30 06:44:31;;;;;;;37.72;7.95;;;5.70;99.90;;;;;;6216405;23;20021;-85
2023/01/30 06:46:57;;;;;;;35.95;7.18;;;5.60;99.90;;;;;;6216285;23;20335;-85
2023/01/30 06:49:23;;;;;;;39.45;7.55;;;5.60;99.90;;;;;;6214514;23;20258;-85
2023/01/30 06:51:48;;;;;;;39.40;6.40;;;5.70;99.90;;;;;;6214796;23;20013;-85
2023/01/30 06:54:14;;;;;;;37.80;6.82;;;5.60;99.90;;;;;;6189580;23;20439;-85
2023/01/30 06:56:40;;;;;;;34.10;7.35;;;5.60;99.90;;;;;;6189810;23;20174;-85
2023/01/30 06:59:05;;;;;;;30.58;5.82;;;5.80;99.90;;;;;;6214985;23;20304;-85
2023/01/30 07:01:31;;;;;;;31.92;7.03;;;5.60;99.90;;;;;;6214645;23;20764;-85
2023/01/30 07:03:56;;;;;;;40.40;7.45;;;5.70;99.90;;;;;;6213758;23;20443;-85
2023/01/30 07:06:22;;;;;;;34.30;7.45;;;6.00;99.90;;;;;;6214326;23;20013;-85
2023/01/30 07:08:48;;;;;;;39.35;7.13;;;5.60;99.90;;;;;;6213895;23;20121;-87
2023/01/30 07:11:13;;;;;;;38.08;8.73;;;5.60;99.90;;;;;;6213331;23;20085;-86
2023/01/30 07:13:39;;;;;;;35.65;6.38;;;5.70;99.90;;;;;;6212945;23;20004;-85
2023/01/30 07:16:05;;;;;;;36.85;7.13;;;5.70;99.90;;;;;;6213315;23;20031;-85
2023/01/30 07:18:31;;;;;;;32.40;6.97;;;5.80;99.90;;;;;;6212509;23;20009;-86
2023/01/30 07:20:56;;;;;;;32.15;7.03;;;5.80;99.90;;;;;;6212934;23;20032;-86
2023/01/30 07:23:22;;;;;;;33.75;7.63;;;5.80;99.90;;;;;;6188044;23;20017;-86
2023/01/30 07:25:48;;;;;;;43.38;7.90;;;5.80;99.90;;;;;;6213128;23;20096;-86
2023/01/30 07:28:13;;;;;;;39.10;7.22;;;5.90;99.90;;;;;;6212529;23;20017;-86
2023/01/30 07:30:39;;;;;;;38.67;8.57;;;5.90;99.90;;;;;;6187746;23;20020;-86
2023/01/30 07:33:05;;;;;;;34.05;7.13;;;5.90;99.90;;;;;;6214639;23;20016;-86
2023/01/30 07:35:33;;;;;;;41.15;7.72;;;5.90;99.90;;;;;;6214016;23;20005;-87
2023/01/30 07:37:58;;;;;;;37.22;7.50;;;5.90;99.90;;;;;;6212987;23;20008;-86
2023/01/30 07:40:25;;;;;;;44.22;7.75;;;6.20;99.90;;;;;;6187789;23;20013;-85
2023/01/30 07:43:02;;;;;;;34.63;6.25;;;6.20;99.90;;;;;;6212479;23;20059;-86
2023/01/30 07:45:35;;;;;;;34.92;6.80;;;5.90;99.90;;;;;;6188406;23;20031;-85
2023/01/30 07:48:01;;;;;;;41.70;7.03;;;6.00;99.90;;;;;;6187088;23;20060;-87
2023/01/30 07:50:26;;;;;;;39.17;6.85;;;6.00;99.90;;;;;;6187491;23;20436;-86
2023/01/30 07:52:53;;;;;;;31.88;6.53;;;6.20;99.90;;;;;;6214285;23;20017;-85
2023/01/30 07:55:18;;;;;;;33.33;8.25;;;6.00;99.90;;;;;;6212858;23;20009;-85
2023/01/30 07:57:44;;;;;;;38.22;7.50;;;6.00;99.90;;;;;;6214158;23;20507;-87
2023/01/30 08:00:11;;;;;;;39.72;7.57;;;6.00;99.90;;;;;;6213497;23;20021;-86
2023/01/30 08:02:37;;;;;;;34.35;7.30;;;6.10;99.90;;;;;;6212504;23;20059;-86
2023/01/30 08:05:03;;;;;;;31.00;7.72;;;6.10;99.90;;;;;;6212422;23;20482;-86
2023/01/30 08:07:28;;;;;;;36.97;7.50;;;6.10;99.90;;;;;;6212466;23;20013;-87
2023/01/30 08:09:54;;;;;;;38.92;7.47;;;6.10;99.90;;;;;;6187385;23;20447;-86
2023/01/30 08:12:20;;;;;;;29.52;7.32;;;6.40;99.90;;;;;;6187216;23;20054;-86
2023/01/30 08:14:45;;;;;;;37.80;7.47;;;6.50;99.90;;;;;;6211817;23;20073;-86
2023/01/30 08:17:11;;;;;;;35.17;7.45;;;6.20;99.90;;;;;;6187390;23;20454;-86
2023/01/30 08:19:36;;;;;;;37.28;7.20;;;6.20;99.90;;;;;;6212306;23;20087;-86
2023/01/30 08:22:02;;;;;;;26.13;5.95;;;6.20;99.90;;;;;;6214713;23;20052;-87
2023/01/30 08:24:28;;;;;;;33.65;6.50;;;6.30;99.90;;;;;;6212623;23;20019;-86
2023/01/30 08:26:53;;;;;;;43.20;7.25;;;6.30;99.90;;;;;;6187240;23;20467;-86
2023/01/30 08:29:19;;;;;;;38.17;7.45;;;6.40;99.90;;;;;;6211904;23;20430;-86
2023/01/30 08:31:45;;;;;;;31.95;7.22;;;6.30;99.90;;;;;;6212593;23;20328;-86
2023/01/30 08:34:10;;;;;;;30.05;6.32;;;6.40;99.90;;;;;;6187243;23;20430;-85
2023/01/30 08:36:36;;;;;;;32.78;7.55;;;6.40;99.90;;;;;;6212077;23;20008;-86
2023/01/30 08:39:02;;;;;;;26.08;6.13;;;6.40;99.90;;;;;;6212122;23;20427;-86
2023/01/30 08:41:27;;;;;;;34.88;7.10;;;6.40;99.90;;;;;;6212266;23;20090;-86
2023/01/30 08:43:53;;;;;;;29.17;6.68;;;6.50;99.90;;;;;;6211487;23;20320;-87
2023/01/30 08:46:22;;;;;;;36.78;6.53;;;6.40;99.90;;;;;;6212147;23;20009;-86
2023/01/30 08:48:48;;;;;;;35.55;7.40;;;6.40;99.90;;;;;;6211917;23;20047;-86
2023/01/30 08:51:14;;;;;;;38.38;6.97;;;6.40;99.90;;;;;;6186979;23;20013;-85
2023/01/30 08:53:39;;;;;;;36.20;6.97;;;6.60;99.90;;;;;;6211527;23;20392;-85
2023/01/30 08:56:05;;;;;;;41.28;7.57;;;6.50;99.90;;;;;;6211903;23;20027;-86
2023/01/30 08:58:31;;;;;;;37.97;7.43;;;6.60;99.90;;;;;;6211731;23;20020;-87
2023/01/30 09:00:57;;;;;;;44.60;7.60;;;6.60;99.90;;;;;;6237550;23;20008;-86
2023/01/30 09:03:22;;;;;;;42.38;8.05;;;6.60;99.90;;;;;;6212338;23;20289;-86
2023/01/30 09:05:54;;;;;;;35.03;7.43;;;6.60;99.90;;;;;;6186314;23;20388;-86
2023/01/30 09:08:20;;;;;;;35.88;7.65;;;6.70;99.90;;;;;;6211675;23;20078;-86
2023/01/30 09:10:46;;;;;;;29.83;6.93;;;6.80;99.90;;;;;;6212005;23;20016;-86
2023/01/30 09:13:12;;;;;;;32.05;7.35;;;7.00;99.90;;;;;;6236503;23;20027;-86
2023/01/30 09:15:41;;;;;;;31.58;7.13;;;6.90;99.90;;;;;;6186750;23;20103;-86
2023/01/30 09:18:06;;;;;;;32.42;7.68;;;7.00;99.90;;;;;;6211579;23;20016;-86
2023/01/30 09:20:32;;;;;;;31.05;6.78;;;7.00;99.90;;;;;;6186520;23;20015;-85
2023/01/30 09:22:58;;;;;;;33.05;7.00;;;7.10;99.90;;;;;;6213530;23;20092;-86
2023/01/30 09:25:23;;;;;;;39.17;7.63;;;7.20;99.90;;;;;;6211425;23;20059;-86
2023/01/30 09:27:49;;;;;;;39.58;7.28;;;7.10;99.90;;;;;;6210838;23;20154;-85
2023/01/30 09:30:16;;;;;;;33.53;6.63;;;7.10;99.90;;;;;;6211390;23;20086;-86
2023/01/30 09:32:41;;;;;;;36.15;7.63;;;7.10;99.90;;;;;;6213414;23;20024;-85
2023/01/30 09:35:07;;;;;;;32.75;6.63;;;7.30;99.90;;;;;;6211424;23;20004;-86
2023/01/30 09:37:33;;;;;;;27.00;6.20;;;7.20;99.90;;;;;;6211722;23;20009;-86
2023/01/30 09:39:59;;;;;;;32.83;6.38;;;7.20;99.90;;;;;;6211122;23;20032;-86
2023/01/30 09:42:55;;;;;;;25.88;6.07;;;7.20;99.90;;;;;;6210440;23;20103;-86
2023/01/30 09:45:52;;;;;;;40.00;7.00;;;7.20;99.90;;;;;;6186360;23;20067;-86
2023/01/30 09:48:34;;;;;;;37.42;7.30;;;7.20;99.90;;;;;;6211966;23;20125;-86
2023/01/30 09:51:25;;;;;;;32.88;6.63;;;7.10;99.90;;;;;;6211452;23;20024;-86
2023/01/30 09:53:58;;;;;;;30.13;7.75;;;7.00;99.90;;;;;;6211683;23;20019;-86
2023/01/30 09:56:24;;;;;;;40.13;8.10;;;6.90;99.90;;;;;;6236398;23;20008;-86
2023/01/30 09:58:58;;;;;;;36.03;7.15;;;6.80;99.90;;;;;;6211401;23;20228;-86
2023/01/30 10:01:39;;;;;;;45.05;8.80;;;6.80;99.90;;;;;;6236829;23;20043;-86
2023/01/30 10:04:27;;;;;;;36.80;7.78;;;6.70;99.90;;;;;;6211094;23;20056;-86
2023/01/30 10:07:30;;;;;;;38.28;7.95;;;6.70;99.90;;;;;;6236834;23;20417;-86
2023/01/30 10:10:04;;;;;;;38.58;7.78;;;6.70;99.90;;;;;;6211120;23;20030;-86
2023/01/30 10:13:02;;;;;;;36.88;7.55;;;6.80;99.90;;;;;;6210567;23;20016;-86
2023/01/30 10:15:54;;;;;;;42.58;7.78;;;6.90;99.90;;;;;;6149880;23;20041;-86
2023/01/30 10:18:37;;;;;;;37.85;7.45;;;6.90;99.90;;;;;;6125413;23;20013;-86
2023/01/30 10:21:08;;;;;;;32.88;7.18;;;7.60;99.90;;;;;;6150353;23;20010;-86
2023/01/30 10:23:52;;;;;;;36.20;6.80;;;7.30;99.90;;;;;;6101641;23;20163;-87
2023/01/30 10:26:21;;;;;;;28.02;6.97;;;7.10;99.90;;;;;;6125098;23;20046;-86
2023/01/30 10:29:04;;;;;;;43.38;8.57;;;7.30;99.90;;;;;;6125478;23;20017;-86
2023/01/30 10:31:41;;;;;;;30.85;6.88;;;7.40;99.90;;;;;;6150262;23;20080;-86
2023/01/30 10:34:16;;;;;;;34.53;7.50;;;7.50;99.90;;;;;;6150324;23;20010;-86
2023/01/30 10:37:14;;;;;;;42.45;9.00;;;7.50;99.90;;;;;;6101277;23;20169;-85
2023/01/30 10:39:55;;;;;;;28.80;6.88;;;7.40;99.90;;;;;;6124838;23;20476;-85
2023/01/30 10:42:30;;;;;;;32.83;5.13;;;7.10;99.90;;;;;;6150348;23;20018;-86
2023/01/30 10:45:14;;;;;;;10.07;2.85;;;7.00;99.90;;;;;;6125376;23;20036;-85
2023/01/30 10:48:15;;;;;;;9.75;2.20;;;6.60;99.90;;;;;;6126471;23;20104;-86
2023/01/30 10:50:58;;;;;;;8.82;1.85;;;6.30;99.90;;;;;;6127416;23;20128;-85
2023/01/30 10:53:40;;;;;;;8.23;1.63;;;6.20;99.90;;;;;;6211125;23;20023;-85
2023/01/30 10:56:21;;;;;;;8.30;2.00;;;6.00;99.90;;;;;;6210602;23;20491;-86
2023/01/30 10:59:11;;;;;;;10.20;2.00;;;5.90;99.90;;;;;;6211056;23;20040;-86
2023/01/30 11:01:44;;;;;;;15.05;3.08;;;5.90;99.90;;;;;;6211199;23;20427;-86
2023/01/30 11:04:25;;;;;;;16.07;3.37;;;5.90;99.90;;;;;;6210952;23;20455;-86
2023/01/30 11:06:52;;;;;;;11.55;3.72;;;5.90;99.90;;;;;;6210953;23;20087;-86
2023/01/30 11:09:18;;;;;;;19.20;3.88;;;6.00;99.90;;;;;;6210421;23;20019;-87
2023/01/30 11:12:01;;;;;;;26.27;4.95;;;6.10;99.90;;;;;;6211373;23;20087;-86
2023/01/30 11:14:27;;;;;;;;;;;6.20;99.90;;;;;;6211827;23;20359;-86
2023/01/30 11:16:54;;;;;;;23.50;4.18;;;6.20;99.90;;;;;;6185753;23;19958;-87
2023/01/30 11:19:32;;;;;;;22.42;4.88;;;6.20;99.90;;;;;;6236778;23;20012;-87
2023/01/30 11:22:05;;;;;;;23.15;4.45;;;6.40;99.90;;;;;;6210620;23;20019;-86
2023/01/30 11:24:44;;;;;;;22.25;4.55;;;6.50;99.90;;;;;;6210591;23;20023;-87
2023/01/30 11:27:16;;;;;;;24.67;5.10;;;6.60;99.90;;;;;;6210699;23;20013;-87
2023/01/30 11:29:42;;;;;;;23.05;5.50;;;6.60;99.90;;;;;;6238226;23;20024;-86
2023/01/30 11:32:25;;;;;;;22.33;4.82;;;6.70;99.90;;;;;;6212767;23;20016;-86
2023/01/30 11:35:26;;;;;;;26.30;4.80;;;6.90;99.90;;;;;;6214242;23;20012;-86
2023/01/30 11:37:53;;;;;;;27.10;5.28;;;7.00;99.90;;;;;;6157760;23;20096;-86
2023/01/30 11:40:25;;;;;;;18.17;5.10;;;7.20;99.90;;;;;;6212776;23;20055;-86
2023/01/30 11:43:12;;;;;;;22.02;4.70;;;7.10;99.90;;;;;;6212773;23;20092;-86
2023/01/30 11:45:49;;;;;;;21.75;4.40;;;7.10;99.90;;;;;;6212727;23;20016;-86
2023/01/30 11:48:18;;;;;;;21.00;4.28;;;7.20;99.90;;;;;;6214686;23;20017;-86
2023/01/30 11:50:47;;;;;;;23.25;4.88;;;7.20;99.90;;;;;;6212591;23;20020;-86
2023/01/30 11:53:35;;;;;;;17.85;4.70;;;7.60;99.90;;;;;;6212003;23;20013;-86
2023/01/30 11:56:11;;;;;;;21.77;4.75;;;7.40;99.90;;;;;;6212924;23;20009;-87
2023/01/30 11:58:39;;;;;;;21.23;3.90;;;7.50;99.90;;;;;;6212580;23;20076;-86
2023/01/30 12:01:08;;;;;;;15.00;3.60;;;7.50;99.90;;;;;;6212693;23;20040;-86
2023/01/30 12:03:44;;;;;;;14.68;3.58;;;7.50;99.90;;;;;;6212324;23;20021;-87
2023/01/30 12:06:10;;;;;;;22.27;4.18;;;7.50;99.90;;;;;;6212399;23;20108;-87
2023/01/30 12:08:38;;;;;;;20.35;3.90;;;7.50;99.90;;;;;;6213871;23;20104;-86
2023/01/30 12:11:24;;;;;;;19.25;4.18;;;7.50;99.90;;;;;;6238278;23;20028;-87
2023/01/30 12:13:51;;;;;;;24.52;4.57;;;7.50;99.90;;;;;;6212176;23;20024;-87
2023/01/30 12:16:22;;;;;;;21.98;4.28;;;7.40;99.90;;;;;;6212281;23;20009;-86
2023/01/30 12:19:19;;;;;;;21.35;4.93;;;7.50;99.90;;;;;;6187336;23;20068;-86
2023/01/30 12:21:58;;;;;;;24.75;4.82;;;7.40;99.90;;;;;;6212192;23;20021;-87
2023/01/30 12:24:37;;;;;;;19.25;4.22;;;7.30;99.90;;;;;;6187488;23;20016;-87
2023/01/30 12:27:22;;;;;;;25.25;4.95;;;7.30;99.90;;;;;;6238568;23;20023;-87
2023/01/30 12:29:58;;;;;;;23.25;4.82;;;7.30;99.90;;;;;;6212564;23;20457;-86
2023/01/30 12:32:30;;;;;;;19.88;4.63;;;7.50;99.90;;;;;;6212112;23;20039;-87
2023/01/30 12:34:56;;;;;;;28.95;5.28;;;7.60;99.90;;;;;;6212281;23;20020;-86
2023/01/30 12:37:55;;;;;;;26.67;5.53;;;7.60;99.90;;;;;;6213554;23;20089;-87
2023/01/30 12:40:32;;;;;;;23.73;5.03;;;7.60;99.90;;;;;;6179854;23;20023;-87
2023/01/30 12:43:23;;;;;;;22.45;6.03;;;7.70;99.90;;;;;;6211974;23;20017;-87
2023/01/30 12:45:58;;;;;;;24.30;5.47;;;8.00;99.90;;;;;;6212719;23;20020;-85
2023/01/30 12:48:51;;;;;;;26.15;5.90;;;7.90;99.90;;;;;;6212261;23;20067;-86
2023/01/30 12:51:35;;;;;;;22.40;5.60;;;7.90;99.90;;;;;;6213662;23;20036;-86
2023/01/30 12:54:27;;;;;;;26.38;5.88;;;7.90;99.90;;;;;;6213680;23;20016;-87
2023/01/30 12:57:06;;;;;;;29.40;6.38;;;7.90;99.90;;;;;;6237768;23;20009;-86
2023/01/30 12:59:43;;;;;;;26.15;5.75;;;7.80;99.90;;;;;;6212214;23;20023;-87
2023/01/30 13:02:32;;;;;;;28.58;6.32;;;8.00;99.90;;;;;;6237640;23;20023;-86
2023/01/30 13:05:27;;;;;;;35.90;7.45;;;7.90;99.90;;;;;;6211365;23;20095;-86
2023/01/30 13:07:56;;;;;;;37.53;6.47;;;7.90;99.90;;;;;;6212052;23;20016;-87
2023/01/30 13:10:24;;;;;;;28.58;6.22;;;7.90;99.90;;;;;;6211836;23;20009;-86